sensor_id;sensor_type;location;lat;lon;timestamp;P1;durP1;ratioP1;P2;durP2;ratioP2
18104;SDS011;9179;50.968;3.134;2022-07-25T00:01:24;3.33;;;3.03;;
18104;SDS011;9179;50.968;3.134;2022-07-25T00:03:50;3.38;;;3.08;;
18104;SDS011;9179;50.968;3.134;2022-07-25T00:06:17;3.60;;;3.13;;
18104;SDS011;9179;50.968;3.134;2022-07-25T00:08:44;3.28;;;2.97;;
18104;SDS011;9179;50.968;3.134;2022-07-25T00:11:11;2.58;;;2.38;;
18104;SDS011;9179;50.968;3.134;2022-07-25T00:13:39;3.90;;;2.70;;
18104;SDS011;9179;50.968;3.134;2022-07-25T00:16:06;3.13;;;2.78;;
18104;SDS011;9179;50.968;3.134;2022-07-25T00:18:33;2.88;;;2.67;;
18104;SDS011;9179;50.968;3.134;2022-07-25T00:21:00;2.80;;;2.60;;
18104;SDS011;9179;50.968;3.134;2022-07-25T00:23:27;4.43;;;2.88;;
18104;SDS011;9179;50.968;3.134;2022-07-25T00:25:54;4.97;;;3.40;;
18104;SDS011;9179;50.968;3.134;2022-07-25T00:28:21;5.28;;;3.20;;
18104;SDS011;9179;50.968;3.134;2022-07-25T00:30:49;4.50;;;2.60;;
18104;SDS011;9179;50.968;3.134;2022-07-25T00:33:16;3.33;;;2.90;;
18104;SDS011;9179;50.968;3.134;2022-07-25T00:35:43;2.85;;;2.60;;
18104;SDS011;9179;50.968;3.134;2022-07-25T00:38:10;3.30;;;3.00;;
18104;SDS011;9179;50.968;3.134;2022-07-25T00:40:37;3.17;;;2.80;;
18104;SDS011;9179;50.968;3.134;2022-07-25T00:43:04;6.18;;;2.90;;
18104;SDS011;9179;50.968;3.134;2022-07-25T00:45:31;2.85;;;2.53;;
18104;SDS011;9179;50.968;3.134;2022-07-25T00:47:59;2.63;;;2.42;;
18104;SDS011;9179;50.968;3.134;2022-07-25T00:50:26;3.30;;;2.83;;
18104;SDS011;9179;50.968;3.134;2022-07-25T00:52:53;2.75;;;2.55;;
18104;SDS011;9179;50.968;3.134;2022-07-25T00:55:21;4.32;;;3.08;;
18104;SDS011;9179;50.968;3.134;2022-07-25T00:57:50;2.65;;;2.45;;
18104;SDS011;9179;50.968;3.134;2022-07-25T01:00:17;2.72;;;2.50;;
18104;SDS011;9179;50.968;3.134;2022-07-25T01:02:44;3.42;;;2.83;;
18104;SDS011;9179;50.968;3.134;2022-07-25T01:05:13;4.30;;;2.50;;
18104;SDS011;9179;50.968;3.134;2022-07-25T01:07:40;3.70;;;3.28;;
18104;SDS011;9179;50.968;3.134;2022-07-25T01:10:07;5.72;;;3.33;;
18104;SDS011;9179;50.968;3.134;2022-07-25T01:12:46;5.53;;;3.55;;
18104;SDS011;9179;50.968;3.134;2022-07-25T01:15:14;4.18;;;3.33;;
18104;SDS011;9179;50.968;3.134;2022-07-25T01:17:42;3.63;;;3.30;;
18104;SDS011;9179;50.968;3.134;2022-07-25T01:20:14;4.55;;;3.42;;
18104;SDS011;9179;50.968;3.134;2022-07-25T01:22:42;3.72;;;3.45;;
18104;SDS011;9179;50.968;3.134;2022-07-25T01:25:09;3.88;;;3.47;;
18104;SDS011;9179;50.968;3.134;2022-07-25T01:27:36;3.83;;;3.53;;
18104;SDS011;9179;50.968;3.134;2022-07-25T01:30:05;3.58;;;3.33;;
18104;SDS011;9179;50.968;3.134;2022-07-25T01:32:33;7.38;;;3.83;;
18104;SDS011;9179;50.968;3.134;2022-07-25T01:35:00;4.85;;;4.10;;
18104;SDS011;9179;50.968;3.134;2022-07-25T01:37:28;4.60;;;4.20;;
18104;SDS011;9179;50.968;3.134;2022-07-25T01:39:55;5.75;;;4.10;;
18104;SDS011;9179;50.968;3.134;2022-07-25T01:42:23;5.20;;;4.78;;
18104;SDS011;9179;50.968;3.134;2022-07-25T01:44:49;5.25;;;4.72;;
18104;SDS011;9179;50.968;3.134;2022-07-25T01:47:16;6.10;;;4.22;;
18104;SDS011;9179;50.968;3.134;2022-07-25T01:49:43;5.53;;;5.03;;
18104;SDS011;9179;50.968;3.134;2022-07-25T01:52:10;5.15;;;4.70;;
18104;SDS011;9179;50.968;3.134;2022-07-25T01:54:39;5.70;;;4.32;;
18104;SDS011;9179;50.968;3.134;2022-07-25T01:57:06;6.82;;;4.78;;
18104;SDS011;9179;50.968;3.134;2022-07-25T01:59:35;5.07;;;4.68;;
18104;SDS011;9179;50.968;3.134;2022-07-25T02:02:03;5.25;;;4.75;;
18104;SDS011;9179;50.968;3.134;2022-07-25T02:04:30;4.93;;;4.53;;
18104;SDS011;9179;50.968;3.134;2022-07-25T02:06:57;6.50;;;4.60;;
18104;SDS011;9179;50.968;3.134;2022-07-25T02:09:24;5.10;;;4.60;;
18104;SDS011;9179;50.968;3.134;2022-07-25T02:11:53;6.10;;;5.38;;
18104;SDS011;9179;50.968;3.134;2022-07-25T02:14:20;4.55;;;4.15;;
18104;SDS011;9179;50.968;3.134;2022-07-25T02:16:47;5.20;;;4.75;;
18104;SDS011;9179;50.968;3.134;2022-07-25T02:19:14;5.82;;;4.97;;
18104;SDS011;9179;50.968;3.134;2022-07-25T02:21:41;5.13;;;4.63;;
18104;SDS011;9179;50.968;3.134;2022-07-25T02:24:08;4.40;;;4.00;;
18104;SDS011;9179;50.968;3.134;2022-07-25T02:26:35;5.57;;;4.50;;
18104;SDS011;9179;50.968;3.134;2022-07-25T02:29:04;4.95;;;4.47;;
18104;SDS011;9179;50.968;3.134;2022-07-25T02:31:31;4.63;;;3.83;;
18104;SDS011;9179;50.968;3.134;2022-07-25T02:33:57;4.45;;;3.97;;
18104;SDS011;9179;50.968;3.134;2022-07-25T02:36:24;6.47;;;4.15;;
18104;SDS011;9179;50.968;3.134;2022-07-25T02:38:51;8.68;;;3.90;;
18104;SDS011;9179;50.968;3.134;2022-07-25T02:41:18;3.97;;;3.67;;
18104;SDS011;9179;50.968;3.134;2022-07-25T02:43:45;4.65;;;3.40;;
18104;SDS011;9179;50.968;3.134;2022-07-25T02:46:13;4.20;;;3.72;;
18104;SDS011;9179;50.968;3.134;2022-07-25T02:48:40;4.88;;;3.70;;
18104;SDS011;9179;50.968;3.134;2022-07-25T02:51:07;3.80;;;3.40;;
18104;SDS011;9179;50.968;3.134;2022-07-25T02:53:34;3.72;;;3.17;;
18104;SDS011;9179;50.968;3.134;2022-07-25T02:56:01;4.00;;;3.40;;
18104;SDS011;9179;50.968;3.134;2022-07-25T02:58:28;3.35;;;2.78;;
18104;SDS011;9179;50.968;3.134;2022-07-25T03:00:54;3.03;;;2.67;;
18104;SDS011;9179;50.968;3.134;2022-07-25T03:03:23;3.20;;;2.90;;
18104;SDS011;9179;50.968;3.134;2022-07-25T03:05:50;3.53;;;2.80;;
18104;SDS011;9179;50.968;3.134;2022-07-25T03:08:17;3.55;;;3.00;;
18104;SDS011;9179;50.968;3.134;2022-07-25T03:10:43;3.40;;;3.10;;
18104;SDS011;9179;50.968;3.134;2022-07-25T03:13:10;3.25;;;2.80;;
18104;SDS011;9179;50.968;3.134;2022-07-25T03:15:37;2.75;;;2.55;;
18104;SDS011;9179;50.968;3.134;2022-07-25T03:18:04;2.80;;;2.55;;
18104;SDS011;9179;50.968;3.134;2022-07-25T03:20:33;3.33;;;3.03;;
18104;SDS011;9179;50.968;3.134;2022-07-25T03:22:59;4.15;;;2.67;;
18104;SDS011;9179;50.968;3.134;2022-07-25T03:25:26;3.55;;;3.03;;
18104;SDS011;9179;50.968;3.134;2022-07-25T03:27:53;3.55;;;2.33;;
18104;SDS011;9179;50.968;3.134;2022-07-25T03:30:20;6.15;;;2.90;;
18104;SDS011;9179;50.968;3.134;2022-07-25T03:32:47;2.63;;;2.42;;
18104;SDS011;9179;50.968;3.134;2022-07-25T03:35:14;2.42;;;2.20;;
18104;SDS011;9179;50.968;3.134;2022-07-25T03:37:43;2.47;;;2.28;;
18104;SDS011;9179;50.968;3.134;2022-07-25T03:40:11;3.35;;;3.05;;
18104;SDS011;9179;50.968;3.134;2022-07-25T03:42:39;6.72;;;3.17;;
18104;SDS011;9179;50.968;3.134;2022-07-25T03:45:06;3.88;;;3.50;;
18104;SDS011;9179;50.968;3.134;2022-07-25T03:47:34;3.47;;;3.17;;
18104;SDS011;9179;50.968;3.134;2022-07-25T03:50:01;3.63;;;2.83;;
18104;SDS011;9179;50.968;3.134;2022-07-25T03:52:28;5.28;;;3.30;;
18104;SDS011;9179;50.968;3.134;2022-07-25T03:54:57;8.00;;;3.40;;
18104;SDS011;9179;50.968;3.134;2022-07-25T03:57:24;3.80;;;2.80;;
18104;SDS011;9179;50.968;3.134;2022-07-25T03:59:50;4.72;;;3.95;;
18104;SDS011;9179;50.968;3.134;2022-07-25T04:02:17;5.47;;;2.50;;
18104;SDS011;9179;50.968;3.134;2022-07-25T04:04:45;3.30;;;3.00;;
18104;SDS011;9179;50.968;3.134;2022-07-25T04:07:11;2.85;;;2.65;;
18104;SDS011;9179;50.968;3.134;2022-07-25T04:09:38;3.70;;;3.30;;
18104;SDS011;9179;50.968;3.134;2022-07-25T04:12:07;3.33;;;2.90;;
18104;SDS011;9179;50.968;3.134;2022-07-25T04:14:34;5.88;;;2.97;;
18104;SDS011;9179;50.968;3.134;2022-07-25T04:17:01;3.40;;;3.10;;
18104;SDS011;9179;50.968;3.134;2022-07-25T04:19:28;4.28;;;3.17;;
18104;SDS011;9179;50.968;3.134;2022-07-25T04:21:55;4.38;;;2.80;;
18104;SDS011;9179;50.968;3.134;2022-07-25T04:24:22;5.68;;;3.47;;
18104;SDS011;9179;50.968;3.134;2022-07-25T04:26:49;3.38;;;3.08;;
18104;SDS011;9179;50.968;3.134;2022-07-25T04:29:17;5.07;;;3.55;;
18104;SDS011;9179;50.968;3.134;2022-07-25T04:31:44;5.45;;;3.35;;
18104;SDS011;9179;50.968;3.134;2022-07-25T04:34:11;3.70;;;3.05;;
18104;SDS011;9179;50.968;3.134;2022-07-25T04:36:38;4.45;;;3.40;;
18104;SDS011;9179;50.968;3.134;2022-07-25T04:39:06;3.53;;;3.22;;
18104;SDS011;9179;50.968;3.134;2022-07-25T04:41:32;3.95;;;3.05;;
18104;SDS011;9179;50.968;3.134;2022-07-25T04:43:59;6.50;;;3.47;;
18104;SDS011;9179;50.968;3.134;2022-07-25T04:46:28;5.10;;;4.05;;
18104;SDS011;9179;50.968;3.134;2022-07-25T04:48:55;5.28;;;3.47;;
18104;SDS011;9179;50.968;3.134;2022-07-25T04:51:21;5.93;;;3.38;;
18104;SDS011;9179;50.968;3.134;2022-07-25T04:53:48;5.03;;;3.67;;
18104;SDS011;9179;50.968;3.134;2022-07-25T04:56:15;8.48;;;3.78;;
18104;SDS011;9179;50.968;3.134;2022-07-25T04:58:42;6.40;;;3.08;;
18104;SDS011;9179;50.968;3.134;2022-07-25T05:01:09;3.28;;;2.88;;
18104;SDS011;9179;50.968;3.134;2022-07-25T05:03:37;3.85;;;3.30;;
18104;SDS011;9179;50.968;3.134;2022-07-25T05:06:05;5.25;;;3.42;;
18104;SDS011;9179;50.968;3.134;2022-07-25T05:08:32;6.03;;;4.10;;
18104;SDS011;9179;50.968;3.134;2022-07-25T05:11:01;5.10;;;4.65;;
18104;SDS011;9179;50.968;3.134;2022-07-25T05:13:28;7.53;;;4.75;;
18104;SDS011;9179;50.968;3.134;2022-07-25T05:15:55;6.95;;;5.03;;
18104;SDS011;9179;50.968;3.134;2022-07-25T05:18:27;6.10;;;5.50;;
18104;SDS011;9179;50.968;3.134;2022-07-25T05:20:56;11.55;;;6.28;;
18104;SDS011;9179;50.968;3.134;2022-07-25T05:23:23;9.25;;;6.15;;
18104;SDS011;9179;50.968;3.134;2022-07-25T05:25:50;5.88;;;5.13;;
18104;SDS011;9179;50.968;3.134;2022-07-25T05:28:19;4.88;;;4.43;;
18104;SDS011;9179;50.968;3.134;2022-07-25T05:30:46;6.88;;;5.05;;
18104;SDS011;9179;50.968;3.134;2022-07-25T05:33:13;8.95;;;5.03;;
18104;SDS011;9179;50.968;3.134;2022-07-25T05:35:40;11.82;;;5.32;;
18104;SDS011;9179;50.968;3.134;2022-07-25T05:38:08;9.20;;;5.90;;
18104;SDS011;9179;50.968;3.134;2022-07-25T05:40:35;5.75;;;5.25;;
18104;SDS011;9179;50.968;3.134;2022-07-25T05:43:02;7.93;;;4.80;;
18104;SDS011;9179;50.968;3.134;2022-07-25T05:45:29;7.45;;;5.13;;
18104;SDS011;9179;50.968;3.134;2022-07-25T05:47:57;6.88;;;4.60;;
18104;SDS011;9179;50.968;3.134;2022-07-25T05:50:24;7.65;;;4.70;;
18104;SDS011;9179;50.968;3.134;2022-07-25T05:52:51;6.47;;;4.43;;
18104;SDS011;9179;50.968;3.134;2022-07-25T05:55:22;6.20;;;3.92;;
18104;SDS011;9179;50.968;3.134;2022-07-25T05:57:49;6.13;;;3.95;;
18104;SDS011;9179;50.968;3.134;2022-07-25T06:00:15;5.70;;;3.65;;
18104;SDS011;9179;50.968;3.134;2022-07-25T06:02:43;3.90;;;3.17;;
18104;SDS011;9179;50.968;3.134;2022-07-25T06:05:10;2.92;;;2.50;;
18104;SDS011;9179;50.968;3.134;2022-07-25T06:07:37;3.20;;;2.70;;
18104;SDS011;9179;50.968;3.134;2022-07-25T06:10:04;3.70;;;2.72;;
18104;SDS011;9179;50.968;3.134;2022-07-25T06:12:32;4.60;;;2.35;;
18104;SDS011;9179;50.968;3.134;2022-07-25T06:14:59;4.22;;;1.80;;
18104;SDS011;9179;50.968;3.134;2022-07-25T06:17:26;3.60;;;2.65;;
18104;SDS011;9179;50.968;3.134;2022-07-25T06:19:54;4.65;;;2.30;;
18104;SDS011;9179;50.968;3.134;2022-07-25T06:22:22;2.67;;;2.40;;
18104;SDS011;9179;50.968;3.134;2022-07-25T06:24:48;3.33;;;2.22;;
18104;SDS011;9179;50.968;3.134;2022-07-25T06:27:15;4.03;;;1.90;;
18104;SDS011;9179;50.968;3.134;2022-07-25T06:29:43;5.75;;;2.38;;
18104;SDS011;9179;50.968;3.134;2022-07-25T06:32:10;4.55;;;2.58;;
18104;SDS011;9179;50.968;3.134;2022-07-25T06:34:37;2.22;;;1.98;;
18104;SDS011;9179;50.968;3.134;2022-07-25T06:37:04;3.92;;;2.42;;
18104;SDS011;9179;50.968;3.134;2022-07-25T06:39:31;2.13;;;2.00;;
18104;SDS011;9179;50.968;3.134;2022-07-25T06:41:58;4.40;;;2.63;;
18104;SDS011;9179;50.968;3.134;2022-07-25T06:44:30;4.15;;;2.25;;
18104;SDS011;9179;50.968;3.134;2022-07-25T06:46:59;6.90;;;2.70;;
18104;SDS011;9179;50.968;3.134;2022-07-25T06:49:26;5.68;;;2.28;;
18104;SDS011;9179;50.968;3.134;2022-07-25T06:51:53;2.47;;;2.10;;
18104;SDS011;9179;50.968;3.134;2022-07-25T06:54:20;4.35;;;2.17;;
18104;SDS011;9179;50.968;3.134;2022-07-25T06:56:47;4.10;;;2.40;;
18104;SDS011;9179;50.968;3.134;2022-07-25T06:59:14;4.20;;;2.00;;
18104;SDS011;9179;50.968;3.134;2022-07-25T07:01:41;3.50;;;2.35;;
18104;SDS011;9179;50.968;3.134;2022-07-25T07:04:09;2.55;;;2.30;;
18104;SDS011;9179;50.968;3.134;2022-07-25T07:06:36;2.85;;;2.13;;
18104;SDS011;9179;50.968;3.134;2022-07-25T07:09:04;4.70;;;2.63;;
18104;SDS011;9179;50.968;3.134;2022-07-25T07:11:31;4.25;;;2.20;;
18104;SDS011;9179;50.968;3.134;2022-07-25T07:13:58;4.80;;;2.67;;
18104;SDS011;9179;50.968;3.134;2022-07-25T07:16:27;4.00;;;2.40;;
18104;SDS011;9179;50.968;3.134;2022-07-25T07:18:54;2.80;;;2.13;;
18104;SDS011;9179;50.968;3.134;2022-07-25T07:21:22;2.25;;;1.83;;
18104;SDS011;9179;50.968;3.134;2022-07-25T07:23:49;2.85;;;2.00;;
18104;SDS011;9179;50.968;3.134;2022-07-25T07:26:16;5.40;;;2.40;;
18104;SDS011;9179;50.968;3.134;2022-07-25T07:28:43;3.72;;;2.25;;
18104;SDS011;9179;50.968;3.134;2022-07-25T07:31:10;3.75;;;2.38;;
18104;SDS011;9179;50.968;3.134;2022-07-25T07:33:37;4.10;;;2.30;;
18104;SDS011;9179;50.968;3.134;2022-07-25T07:36:04;5.97;;;2.70;;
18104;SDS011;9179;50.968;3.134;2022-07-25T07:38:32;4.53;;;3.00;;
18104;SDS011;9179;50.968;3.134;2022-07-25T07:40:59;4.57;;;2.63;;
18104;SDS011;9179;50.968;3.134;2022-07-25T07:43:26;4.18;;;2.75;;
18104;SDS011;9179;50.968;3.134;2022-07-25T07:45:55;6.05;;;3.17;;
18104;SDS011;9179;50.968;3.134;2022-07-25T07:48:24;4.72;;;2.88;;
18104;SDS011;9179;50.968;3.134;2022-07-25T07:50:51;4.85;;;2.67;;
18104;SDS011;9179;50.968;3.134;2022-07-25T07:53:18;4.38;;;2.92;;
18104;SDS011;9179;50.968;3.134;2022-07-25T07:55:46;7.47;;;3.45;;
18104;SDS011;9179;50.968;3.134;2022-07-25T07:58:14;4.50;;;2.80;;
18104;SDS011;9179;50.968;3.134;2022-07-25T08:00:42;4.55;;;3.13;;
18104;SDS011;9179;50.968;3.134;2022-07-25T08:03:10;4.10;;;3.22;;
18104;SDS011;9179;50.968;3.134;2022-07-25T08:05:37;7.28;;;3.60;;
18104;SDS011;9179;50.968;3.134;2022-07-25T08:08:09;8.95;;;3.30;;
18104;SDS011;9179;50.968;3.134;2022-07-25T08:10:38;5.50;;;3.10;;
18104;SDS011;9179;50.968;3.134;2022-07-25T08:13:12;6.53;;;3.53;;
18104;SDS011;9179;50.968;3.134;2022-07-25T08:15:39;6.53;;;2.92;;
18104;SDS011;9179;50.968;3.134;2022-07-25T08:18:07;5.32;;;3.58;;
18104;SDS011;9179;50.968;3.134;2022-07-25T08:20:34;4.00;;;3.10;;
18104;SDS011;9179;50.968;3.134;2022-07-25T08:23:01;3.50;;;3.03;;
18104;SDS011;9179;50.968;3.134;2022-07-25T08:25:28;6.50;;;2.88;;
18104;SDS011;9179;50.968;3.134;2022-07-25T08:27:56;5.30;;;2.75;;
18104;SDS011;9179;50.968;3.134;2022-07-25T08:30:24;4.60;;;2.78;;
18104;SDS011;9179;50.968;3.134;2022-07-25T08:32:52;3.58;;;2.22;;
18104;SDS011;9179;50.968;3.134;2022-07-25T08:35:21;4.22;;;2.78;;
18104;SDS011;9179;50.968;3.134;2022-07-25T08:37:50;3.50;;;2.30;;
18104;SDS011;9179;50.968;3.134;2022-07-25T08:40:18;6.03;;;2.72;;
18104;SDS011;9179;50.968;3.134;2022-07-25T08:42:47;5.47;;;2.50;;
18104;SDS011;9179;50.968;3.134;2022-07-25T08:45:15;4.57;;;2.40;;
18104;SDS011;9179;50.968;3.134;2022-07-25T08:47:45;4.15;;;2.53;;
18104;SDS011;9179;50.968;3.134;2022-07-25T08:50:15;4.22;;;2.55;;
18104;SDS011;9179;50.968;3.134;2022-07-25T08:52:43;3.30;;;2.15;;
18104;SDS011;9179;50.968;3.134;2022-07-25T08:55:12;3.85;;;2.35;;
18104;SDS011;9179;50.968;3.134;2022-07-25T08:57:41;4.63;;;3.10;;
18104;SDS011;9179;50.968;3.134;2022-07-25T09:00:09;4.90;;;2.33;;
18104;SDS011;9179;50.968;3.134;2022-07-25T09:02:37;3.30;;;2.47;;
18104;SDS011;9179;50.968;3.134;2022-07-25T09:05:06;5.20;;;2.58;;
18104;SDS011;9179;50.968;3.134;2022-07-25T09:07:35;6.25;;;3.03;;
18104;SDS011;9179;50.968;3.134;2022-07-25T09:10:12;4.00;;;2.60;;
18104;SDS011;9179;50.968;3.134;2022-07-25T09:12:40;5.93;;;2.70;;
18104;SDS011;9179;50.968;3.134;2022-07-25T09:15:21;5.97;;;2.90;;
18104;SDS011;9179;50.968;3.134;2022-07-25T09:17:49;5.93;;;2.90;;
18104;SDS011;9179;50.968;3.134;2022-07-25T09:20:18;5.05;;;2.58;;
18104;SDS011;9179;50.968;3.134;2022-07-25T09:22:46;6.65;;;2.97;;
18104;SDS011;9179;50.968;3.134;2022-07-25T09:25:20;4.70;;;2.60;;
18104;SDS011;9179;50.968;3.134;2022-07-25T09:27:48;3.70;;;2.90;;
18104;SDS011;9179;50.968;3.134;2022-07-25T09:30:15;3.50;;;2.55;;
18104;SDS011;9179;50.968;3.134;2022-07-25T09:32:42;4.85;;;2.53;;
18104;SDS011;9179;50.968;3.134;2022-07-25T09:35:10;3.67;;;2.30;;
18104;SDS011;9179;50.968;3.134;2022-07-25T09:37:38;5.28;;;2.08;;
18104;SDS011;9179;50.968;3.134;2022-07-25T09:40:12;4.47;;;2.42;;
18104;SDS011;9179;50.968;3.134;2022-07-25T09:42:40;6.63;;;2.20;;
18104;SDS011;9179;50.968;3.134;2022-07-25T09:45:10;4.22;;;2.15;;
18104;SDS011;9179;50.968;3.134;2022-07-25T09:47:48;4.13;;;2.75;;
18104;SDS011;9179;50.968;3.134;2022-07-25T09:50:17;2.58;;;2.35;;
18104;SDS011;9179;50.968;3.134;2022-07-25T09:52:46;2.65;;;2.05;;
18104;SDS011;9179;50.968;3.134;2022-07-25T09:55:13;6.03;;;3.00;;
18104;SDS011;9179;50.968;3.134;2022-07-25T09:57:40;3.10;;;2.53;;
18104;SDS011;9179;50.968;3.134;2022-07-25T10:00:09;3.45;;;2.33;;
18104;SDS011;9179;50.968;3.134;2022-07-25T10:02:46;3.13;;;2.08;;
18104;SDS011;9179;50.968;3.134;2022-07-25T10:05:15;5.80;;;2.33;;
18104;SDS011;9179;50.968;3.134;2022-07-25T10:07:52;5.90;;;2.25;;
18104;SDS011;9179;50.968;3.134;2022-07-25T10:10:23;4.80;;;3.10;;
18104;SDS011;9179;50.968;3.134;2022-07-25T10:12:57;5.35;;;2.55;;
18104;SDS011;9179;50.968;3.134;2022-07-25T10:15:25;4.80;;;2.58;;
18104;SDS011;9179;50.968;3.134;2022-07-25T10:18:00;4.72;;;2.70;;
18104;SDS011;9179;50.968;3.134;2022-07-25T10:20:28;5.03;;;2.20;;
18104;SDS011;9179;50.968;3.134;2022-07-25T10:22:56;2.97;;;2.28;;
18104;SDS011;9179;50.968;3.134;2022-07-25T10:25:23;3.58;;;2.25;;
18104;SDS011;9179;50.968;3.134;2022-07-25T10:27:50;3.63;;;2.22;;
18104;SDS011;9179;50.968;3.134;2022-07-25T10:30:24;4.35;;;2.60;;
18104;SDS011;9179;50.968;3.134;2022-07-25T10:32:56;4.20;;;2.45;;
18104;SDS011;9179;50.968;3.134;2022-07-25T10:35:24;5.18;;;2.50;;
18104;SDS011;9179;50.968;3.134;2022-07-25T10:37:52;5.18;;;2.45;;
18104;SDS011;9179;50.968;3.134;2022-07-25T10:40:27;5.97;;;2.42;;
18104;SDS011;9179;50.968;3.134;2022-07-25T10:43:01;5.45;;;2.38;;
18104;SDS011;9179;50.968;3.134;2022-07-25T10:45:41;3.83;;;2.42;;
18104;SDS011;9179;50.968;3.134;2022-07-25T10:48:19;3.50;;;2.20;;
18104;SDS011;9179;50.968;3.134;2022-07-25T10:50:48;5.32;;;2.55;;
18104;SDS011;9179;50.968;3.134;2022-07-25T10:53:26;5.00;;;2.10;;
18104;SDS011;9179;50.968;3.134;2022-07-25T10:55:57;5.57;;;1.92;;
18104;SDS011;9179;50.968;3.134;2022-07-25T10:58:27;5.68;;;1.83;;
18104;SDS011;9179;50.968;3.134;2022-07-25T11:01:11;3.58;;;1.75;;
18104;SDS011;9179;50.968;3.134;2022-07-25T11:03:39;4.85;;;1.98;;
18104;SDS011;9179;50.968;3.134;2022-07-25T11:06:09;4.32;;;1.98;;
18104;SDS011;9179;50.968;3.134;2022-07-25T11:08:37;8.27;;;2.13;;
18104;SDS011;9179;50.968;3.134;2022-07-25T11:11:05;5.25;;;1.85;;
18104;SDS011;9179;50.968;3.134;2022-07-25T11:13:35;3.30;;;1.70;;
18104;SDS011;9179;50.968;3.134;2022-07-25T11:16:03;5.82;;;1.70;;
18104;SDS011;9179;50.968;3.134;2022-07-25T11:18:31;3.75;;;1.55;;
18104;SDS011;9179;50.968;3.134;2022-07-25T11:21:00;3.58;;;1.48;;
18104;SDS011;9179;50.968;3.134;2022-07-25T11:23:29;3.40;;;1.25;;
18104;SDS011;9179;50.968;3.134;2022-07-25T11:26:07;5.45;;;1.80;;
18104;SDS011;9179;50.968;3.134;2022-07-25T11:28:36;2.38;;;1.70;;
18104;SDS011;9179;50.968;3.134;2022-07-25T11:31:04;3.78;;;1.70;;
18104;SDS011;9179;50.968;3.134;2022-07-25T11:33:31;4.22;;;1.70;;
18104;SDS011;9179;50.968;3.134;2022-07-25T11:35:59;3.67;;;1.95;;
18104;SDS011;9179;50.968;3.134;2022-07-25T11:38:26;3.00;;;1.80;;
18104;SDS011;9179;50.968;3.134;2022-07-25T11:40:53;5.95;;;1.70;;
18104;SDS011;9179;50.968;3.134;2022-07-25T11:43:22;3.28;;;1.50;;
18104;SDS011;9179;50.968;3.134;2022-07-25T11:45:56;4.93;;;2.38;;
18104;SDS011;9179;50.968;3.134;2022-07-25T11:48:37;3.60;;;1.92;;
18104;SDS011;9179;50.968;3.134;2022-07-25T11:51:09;3.45;;;1.70;;
18104;SDS011;9179;50.968;3.134;2022-07-25T11:53:38;2.45;;;1.33;;
18104;SDS011;9179;50.968;3.134;2022-07-25T11:56:09;6.03;;;1.30;;
18104;SDS011;9179;50.968;3.134;2022-07-25T11:58:42;4.32;;;1.33;;
18104;SDS011;9179;50.968;3.134;2022-07-25T12:01:10;2.03;;;1.20;;
18104;SDS011;9179;50.968;3.134;2022-07-25T12:03:38;3.55;;;1.33;;
18104;SDS011;9179;50.968;3.134;2022-07-25T12:06:08;2.75;;;0.98;;
18104;SDS011;9179;50.968;3.134;2022-07-25T12:08:37;1.90;;;1.00;;
18104;SDS011;9179;50.968;3.134;2022-07-25T12:11:15;1.70;;;1.00;;
18104;SDS011;9179;50.968;3.134;2022-07-25T12:13:45;1.58;;;0.98;;
18104;SDS011;9179;50.968;3.134;2022-07-25T12:16:12;7.60;;;1.23;;
18104;SDS011;9179;50.968;3.134;2022-07-25T12:18:39;2.88;;;1.13;;
18104;SDS011;9179;50.968;3.134;2022-07-25T12:21:06;2.10;;;0.65;;
18104;SDS011;9179;50.968;3.134;2022-07-25T12:23:34;3.60;;;0.95;;
18104;SDS011;9179;50.968;3.134;2022-07-25T12:26:02;3.60;;;0.82;;
18104;SDS011;9179;50.968;3.134;2022-07-25T12:28:29;1.10;;;0.70;;
18104;SDS011;9179;50.968;3.134;2022-07-25T12:30:57;3.75;;;1.00;;
18104;SDS011;9179;50.968;3.134;2022-07-25T12:33:24;3.33;;;1.00;;
18104;SDS011;9179;50.968;3.134;2022-07-25T12:35:51;2.22;;;1.10;;
18104;SDS011;9179;50.968;3.134;2022-07-25T12:38:18;2.90;;;0.90;;
18104;SDS011;9179;50.968;3.134;2022-07-25T12:40:45;3.08;;;0.98;;
18104;SDS011;9179;50.968;3.134;2022-07-25T12:43:11;4.45;;;1.20;;
18104;SDS011;9179;50.968;3.134;2022-07-25T12:45:38;4.55;;;1.20;;
18104;SDS011;9179;50.968;3.134;2022-07-25T12:48:07;2.03;;;0.85;;
18104;SDS011;9179;50.968;3.134;2022-07-25T12:50:35;5.15;;;1.40;;
18104;SDS011;9179;50.968;3.134;2022-07-25T12:53:02;2.53;;;0.82;;
18104;SDS011;9179;50.968;3.134;2022-07-25T12:55:29;3.83;;;1.50;;
18104;SDS011;9179;50.968;3.134;2022-07-25T12:57:56;3.05;;;1.08;;
18104;SDS011;9179;50.968;3.134;2022-07-25T13:00:23;1.88;;;0.77;;
18104;SDS011;9179;50.968;3.134;2022-07-25T13:02:50;2.65;;;0.80;;
18104;SDS011;9179;50.968;3.134;2022-07-25T13:05:21;1.65;;;0.82;;
18104;SDS011;9179;50.968;3.134;2022-07-25T13:07:48;0.75;;;0.68;;
18104;SDS011;9179;50.968;3.134;2022-07-25T13:10:17;1.75;;;0.90;;
18104;SDS011;9179;50.968;3.134;2022-07-25T13:12:44;2.03;;;1.10;;
18104;SDS011;9179;50.968;3.134;2022-07-25T13:15:11;2.40;;;1.42;;
18104;SDS011;9179;50.968;3.134;2022-07-25T13:17:38;2.65;;;1.00;;
18104;SDS011;9179;50.968;3.134;2022-07-25T13:20:06;2.38;;;0.88;;
18104;SDS011;9179;50.968;3.134;2022-07-25T13:22:36;3.45;;;1.15;;
18104;SDS011;9179;50.968;3.134;2022-07-25T13:25:03;1.73;;;1.23;;
18104;SDS011;9179;50.968;3.134;2022-07-25T13:27:30;3.95;;;0.93;;
18104;SDS011;9179;50.968;3.134;2022-07-25T13:29:57;1.75;;;0.90;;
18104;SDS011;9179;50.968;3.134;2022-07-25T13:32:24;2.33;;;0.77;;
18104;SDS011;9179;50.968;3.134;2022-07-25T13:34:52;3.25;;;0.85;;
18104;SDS011;9179;50.968;3.134;2022-07-25T13:37:19;3.50;;;0.93;;
18104;SDS011;9179;50.968;3.134;2022-07-25T13:39:47;5.28;;;1.13;;
18104;SDS011;9179;50.968;3.134;2022-07-25T13:42:14;2.80;;;1.00;;
18104;SDS011;9179;50.968;3.134;2022-07-25T13:44:41;4.60;;;1.13;;
18104;SDS011;9179;50.968;3.134;2022-07-25T13:47:08;4.28;;;1.00;;
18104;SDS011;9179;50.968;3.134;2022-07-25T13:49:35;4.20;;;0.70;;
18104;SDS011;9179;50.968;3.134;2022-07-25T13:52:02;1.15;;;0.98;;
18104;SDS011;9179;50.968;3.134;2022-07-25T13:54:29;4.03;;;1.40;;
18104;SDS011;9179;50.968;3.134;2022-07-25T13:57:02;1.15;;;0.80;;
18104;SDS011;9179;50.968;3.134;2022-07-25T13:59:30;2.50;;;0.90;;
18104;SDS011;9179;50.968;3.134;2022-07-25T14:01:59;3.60;;;1.20;;
18104;SDS011;9179;50.968;3.134;2022-07-25T14:04:26;2.70;;;1.40;;
18104;SDS011;9179;50.968;3.134;2022-07-25T14:07:02;3.42;;;0.85;;
18104;SDS011;9179;50.968;3.134;2022-07-25T14:09:29;4.97;;;1.02;;
18104;SDS011;9179;50.968;3.134;2022-07-25T14:11:59;2.75;;;1.10;;
18104;SDS011;9179;50.968;3.134;2022-07-25T14:14:26;2.92;;;0.70;;
18104;SDS011;9179;50.968;3.134;2022-07-25T14:16:53;2.03;;;0.88;;
18104;SDS011;9179;50.968;3.134;2022-07-25T14:19:20;1.48;;;0.90;;
18104;SDS011;9179;50.968;3.134;2022-07-25T14:21:49;2.88;;;1.25;;
18104;SDS011;9179;50.968;3.134;2022-07-25T14:24:16;2.17;;;0.77;;
18104;SDS011;9179;50.968;3.134;2022-07-25T14:26:43;2.95;;;0.80;;
18104;SDS011;9179;50.968;3.134;2022-07-25T14:29:11;2.33;;;1.20;;
18104;SDS011;9179;50.968;3.134;2022-07-25T14:31:38;2.42;;;0.93;;
18104;SDS011;9179;50.968;3.134;2022-07-25T14:34:05;2.83;;;1.00;;
18104;SDS011;9179;50.968;3.134;2022-07-25T14:36:33;1.90;;;1.00;;
18104;SDS011;9179;50.968;3.134;2022-07-25T14:39:00;3.13;;;0.88;;
18104;SDS011;9179;50.968;3.134;2022-07-25T14:41:28;2.00;;;0.95;;
18104;SDS011;9179;50.968;3.134;2022-07-25T14:43:55;3.05;;;1.08;;
18104;SDS011;9179;50.968;3.134;2022-07-25T14:46:23;5.60;;;1.27;;
18104;SDS011;9179;50.968;3.134;2022-07-25T14:48:50;1.45;;;0.95;;
18104;SDS011;9179;50.968;3.134;2022-07-25T14:51:18;3.92;;;1.02;;
18104;SDS011;9179;50.968;3.134;2022-07-25T14:53:45;3.67;;;0.82;;
18104;SDS011;9179;50.968;3.134;2022-07-25T14:56:12;2.13;;;0.90;;
18104;SDS011;9179;50.968;3.134;2022-07-25T14:58:39;2.28;;;1.25;;
18104;SDS011;9179;50.968;3.134;2022-07-25T15:01:06;2.20;;;0.80;;
18104;SDS011;9179;50.968;3.134;2022-07-25T15:03:37;1.58;;;0.90;;
18104;SDS011;9179;50.968;3.134;2022-07-25T15:06:04;2.95;;;1.30;;